createdAt,value
2018-06-20T00:02:06.994Z,60.50
2018-06-20T00:04:35.236Z,60.30
2018-06-20T00:07:03.470Z,60.30
2018-06-20T00:09:31.727Z,60.20
2018-06-20T00:11:59.967Z,60.20
2018-06-20T00:14:28.230Z,60.00
2018-06-20T00:16:56.463Z,60.00
2018-06-20T00:19:25.489Z,59.80
2018-06-20T00:21:53.739Z,59.80
2018-06-20T00:24:21.980Z,60.00
2018-06-20T00:26:50.228Z,60.20
2018-06-20T00:29:18.467Z,60.60
2018-06-20T00:31:46.723Z,60.50
2018-06-20T00:34:15.734Z,60.60
2018-06-20T00:36:43.987Z,60.50
2018-06-20T00:39:13.020Z,60.80
2018-06-20T00:41:41.271Z,60.80
2018-06-20T00:44:09.606Z,60.20
2018-06-20T00:46:38.096Z,60.30
2018-06-20T00:49:06.383Z,59.70
2018-06-20T00:51:34.586Z,60.10
2018-06-20T00:54:02.845Z,60.30
2018-06-20T00:56:31.846Z,60.80
2018-06-20T00:59:00.110Z,60.80
2018-06-20T01:01:29.126Z,60.50
2018-06-20T01:03:57.811Z,60.50
2018-06-20T01:06:26.050Z,60.20
2018-06-20T01:08:55.784Z,59.10
2018-06-20T01:11:24.035Z,59.10
2018-06-20T01:13:52.276Z,58.70
2018-06-20T01:16:20.527Z,59.00
2018-06-20T01:18:48.773Z,58.60
2018-06-20T01:21:17.073Z,60.20
2018-06-20T01:23:45.307Z,59.60
2018-06-20T01:26:13.561Z,59.40
2018-06-20T01:28:41.809Z,60.10
2018-06-20T01:31:10.062Z,60.20
2018-06-20T01:33:38.297Z,60.10
2018-06-20T01:36:06.544Z,60.40
2018-06-20T01:38:34.800Z,60.50
2018-06-20T01:41:03.048Z,60.40
2018-06-20T01:43:32.123Z,60.80
2018-06-20T01:46:00.331Z,60.70
2018-06-20T01:48:28.598Z,61.10
2018-06-20T01:50:56.844Z,61.10
2018-06-20T01:53:25.103Z,60.80
2018-06-20T01:55:53.359Z,60.30
2018-06-20T01:58:21.627Z,60.50
2018-06-20T02:00:49.867Z,60.50
2018-06-20T02:03:19.094Z,60.40
2018-06-20T02:05:47.334Z,60.30
2018-06-20T02:08:16.351Z,60.10
2018-06-20T02:10:44.618Z,60.20
2018-06-20T02:13:12.861Z,60.40
2018-06-20T02:15:41.891Z,61.60
2018-06-20T02:18:10.131Z,61.50
2018-06-20T02:20:39.148Z,61.40
2018-06-20T02:23:07.399Z,61.30
2018-06-20T02:25:36.421Z,61.10
2018-06-20T02:28:04.664Z,61.00
2018-06-20T02:30:33.679Z,60.20
2018-06-20T02:33:01.925Z,60.00
2018-06-20T02:35:30.209Z,60.30
2018-06-20T02:37:58.447Z,60.60
2018-06-20T02:40:26.691Z,61.00
2018-06-20T02:42:54.950Z,60.30
2018-06-20T02:45:23.346Z,59.90
2018-06-20T02:47:51.588Z,60.00
2018-06-20T02:50:20.601Z,60.00
2018-06-20T02:52:48.860Z,60.00
2018-06-20T02:55:17.098Z,60.40
2018-06-20T02:57:45.347Z,60.40
2018-06-20T03:00:13.674Z,59.70
2018-06-20T03:02:41.893Z,59.10
2018-06-20T03:05:10.123Z,58.90
2018-06-20T03:07:39.131Z,60.00
2018-06-20T03:10:08.151Z,58.70
2018-06-20T03:12:36.389Z,58.70
2018-06-20T03:15:05.407Z,58.50
2018-06-20T03:17:33.977Z,58.50
2018-06-20T03:20:02.972Z,60.70
2018-06-20T03:22:31.213Z,60.00
2018-06-20T03:24:59.469Z,60.10
2018-06-20T03:27:27.784Z,60.70
2018-06-20T03:29:55.960Z,59.90
2018-06-20T03:32:24.969Z,60.40
2018-06-20T03:34:53.229Z,60.40
2018-06-20T03:37:22.267Z,60.80
2018-06-20T03:39:50.517Z,60.80
2018-06-20T03:42:18.758Z,61.10
2018-06-20T03:44:47.803Z,61.30
2018-06-20T03:47:16.046Z,61.20
2018-06-20T03:49:44.292Z,61.10
2018-06-20T03:52:12.549Z,61.00
2018-06-20T03:54:40.795Z,60.90
2018-06-20T03:57:09.052Z,60.70
2018-06-20T03:59:37.296Z,60.60
2018-06-20T04:02:06.463Z,60.90
2018-06-20T04:04:34.731Z,61.00
2018-06-20T04:07:02.961Z,61.40
2018-06-20T04:09:31.974Z,62.60
2018-06-20T04:12:00.226Z,62.50
2018-06-20T04:14:29.231Z,63.00
2018-06-20T04:16:57.487Z,62.90
2018-06-20T04:19:26.488Z,64.30
2018-06-20T04:21:54.759Z,64.30
2018-06-20T04:24:23.778Z,64.50
2018-06-20T04:26:52.015Z,63.70
2018-06-20T04:29:21.040Z,64.30
2018-06-20T04:31:49.282Z,64.20
2018-06-20T04:34:18.346Z,64.60
2018-06-20T04:36:46.561Z,64.50
2018-06-20T04:39:15.584Z,64.60
2018-06-20T04:41:43.839Z,64.70
2018-06-20T04:44:12.393Z,64.70
2018-06-20T04:46:41.357Z,64.80
2018-06-20T04:49:09.607Z,64.80
2018-06-20T04:51:37.863Z,64.70
2018-06-20T04:54:06.342Z,64.30
2018-06-20T04:56:34.599Z,64.60
2018-06-20T04:59:03.592Z,64.10
2018-06-20T05:01:32.622Z,64.90
2018-06-20T05:04:00.890Z,64.80
2018-06-20T05:06:29.136Z,64.10
2018-06-20T05:08:58.141Z,64.70
2018-06-20T05:11:26.398Z,64.60
2018-06-20T05:13:55.408Z,65.20
2018-06-20T05:16:23.671Z,65.10
2018-06-20T05:18:52.676Z,65.60
2018-06-20T05:21:20.942Z,65.70
2018-06-20T05:23:49.947Z,64.80
2018-06-20T05:26:18.296Z,64.80
2018-06-20T05:28:46.512Z,66.00
2018-06-20T05:31:14.759Z,65.20
2018-06-20T05:33:43.762Z,65.10
2018-06-20T05:36:12.023Z,65.00
2018-06-20T05:38:41.033Z,65.20
2018-06-20T05:41:09.304Z,65.20
2018-06-20T05:43:37.550Z,63.80
2018-06-20T05:46:05.801Z,64.30
2018-06-20T05:48:34.042Z,63.90
2018-06-20T05:51:02.311Z,63.60
2018-06-20T05:53:30.558Z,65.10
2018-06-20T05:55:59.566Z,63.90
2018-06-20T05:58:27.822Z,63.80
2018-06-20T06:00:56.827Z,63.50
2018-06-20T06:03:25.856Z,62.50
2018-06-20T06:05:54.086Z,62.50
2018-06-20T06:08:23.106Z,62.60
2018-06-20T06:10:51.359Z,62.60
2018-06-20T06:13:20.379Z,61.50
2018-06-20T06:15:48.623Z,61.40
2018-06-20T06:18:17.845Z,62.00
2018-06-20T06:20:46.291Z,61.90
2018-06-20T06:23:15.323Z,61.70
2018-06-20T06:25:43.557Z,61.60
2018-06-20T06:28:11.789Z,61.30
2018-06-20T06:30:40.134Z,61.50
2018-06-20T06:33:08.343Z,59.90
2018-06-20T06:35:36.606Z,60.30
2018-06-20T06:38:04.850Z,59.40
2018-06-20T06:40:33.858Z,58.60
2018-06-20T06:43:02.106Z,58.60
2018-06-20T06:45:31.124Z,58.50
2018-06-20T06:47:59.366Z,58.50
2018-06-20T06:50:28.396Z,59.00
2018-06-20T06:52:56.731Z,58.20
2018-06-20T06:55:24.963Z,57.50
2018-06-20T06:57:53.212Z,56.70
2018-06-20T07:00:21.479Z,56.30
2018-06-20T07:02:49.738Z,55.30
2018-06-20T07:05:18.757Z,55.00
2018-06-20T07:07:47.002Z,54.90
2018-06-20T07:10:16.119Z,54.00
2018-06-20T07:12:45.528Z,53.80
2018-06-20T07:15:13.782Z,53.80
2018-06-20T07:17:42.865Z,53.90
2018-06-20T07:20:11.830Z,53.00
2018-06-20T07:22:40.085Z,52.90
2018-06-20T07:25:08.320Z,52.60
2018-06-20T07:27:37.351Z,51.40
2018-06-20T07:30:05.672Z,51.40
2018-06-20T07:32:34.815Z,51.50
2018-06-20T07:35:03.051Z,51.50
2018-06-20T07:37:32.179Z,51.30
2018-06-20T07:40:00.417Z,51.30
2018-06-20T07:42:29.442Z,51.10
2018-06-20T07:44:57.734Z,51.90
2018-06-20T07:47:26.715Z,50.50
2018-06-20T07:49:54.962Z,50.40
2018-06-20T07:52:23.977Z,49.70
2018-06-20T07:54:53.175Z,49.00
2018-06-20T07:57:21.559Z,49.00
2018-06-20T07:59:49.811Z,50.10
2018-06-20T08:02:36.515Z,50.20
2018-06-20T08:05:11.144Z,50.20
2018-06-20T08:07:45.886Z,49.10
2018-06-20T08:10:19.862Z,49.10
2018-06-20T08:13:05.707Z,48.10
2018-06-20T08:15:33.956Z,48.00
2018-06-20T08:18:02.206Z,47.80
2018-06-20T08:20:31.218Z,48.00
2018-06-20T08:22:59.481Z,48.00
2018-06-20T08:25:28.482Z,47.70
2018-06-20T08:27:56.739Z,47.60
2018-06-20T08:30:25.745Z,46.00
2018-06-20T08:32:54.762Z,48.10
2018-06-20T08:35:23.003Z,48.10
2018-06-20T08:37:52.012Z,46.00
2018-06-20T08:40:20.270Z,45.90
2018-06-20T08:42:48.511Z,47.20
2018-06-20T08:45:16.770Z,46.70
2018-06-20T08:47:45.016Z,46.90
2018-06-20T08:50:13.271Z,46.40
2018-06-20T08:52:42.281Z,47.00
2018-06-20T08:55:10.543Z,47.00
2018-06-20T08:57:38.806Z,47.10
2018-06-20T09:00:07.808Z,44.80
2018-06-20T09:02:36.836Z,46.20
2018-06-20T09:05:19.966Z,46.40
2018-06-20T09:08:03.107Z,45.00
2018-06-20T09:10:46.257Z,45.30
2018-06-20T09:13:31.071Z,46.30
2018-06-20T09:16:16.144Z,46.20
2018-06-20T09:19:02.086Z,45.00
2018-06-20T09:21:31.119Z,44.90
2018-06-20T09:23:59.364Z,44.80
2018-06-20T09:26:27.717Z,45.10
2018-06-20T09:28:55.939Z,43.90
2018-06-20T09:31:24.217Z,45.50
2018-06-20T09:33:52.452Z,45.60
2018-06-20T09:36:21.494Z,44.50
2018-06-20T09:38:49.739Z,44.50
2018-06-20T09:41:17.999Z,44.40
2018-06-20T09:43:47.016Z,42.40
2018-06-20T09:46:15.269Z,42.30
2018-06-20T09:48:44.274Z,41.00
2018-06-20T09:51:12.539Z,40.90
2018-06-20T09:53:40.790Z,42.60
2018-06-20T09:56:09.810Z,42.50
2018-06-20T09:58:38.062Z,41.60
2018-06-20T10:01:12.787Z,43.60
2018-06-20T10:03:59.601Z,42.10
2018-06-20T10:06:49.522Z,43.30
2018-06-20T10:09:17.702Z,43.30
2018-06-20T10:11:45.955Z,40.20
2018-06-20T10:14:14.198Z,42.00
2018-06-20T10:16:42.460Z,41.80
2018-06-20T10:19:10.700Z,42.60
2018-06-20T10:21:38.942Z,41.70
2018-06-20T10:24:07.191Z,44.60
2018-06-20T10:26:35.432Z,42.20
2018-06-20T10:29:03.682Z,41.80
2018-06-20T10:31:31.930Z,42.00
2018-06-20T10:34:00.955Z,44.40
2018-06-20T10:36:29.186Z,44.40
2018-06-20T10:38:57.436Z,41.50
2018-06-20T10:41:25.674Z,40.40
2018-06-20T10:43:54.037Z,41.50
2018-06-20T10:46:37.171Z,41.30
2018-06-20T10:49:05.428Z,39.60
2018-06-20T10:51:34.008Z,40.00
2018-06-20T10:54:03.018Z,40.50
2018-06-20T10:56:31.274Z,40.50
2018-06-20T10:59:17.094Z,37.60
2018-06-20T11:01:51.044Z,37.60
2018-06-20T11:04:25.074Z,36.60
2018-06-20T11:07:09.775Z,38.30
2018-06-20T11:09:43.769Z,37.60
2018-06-20T11:12:28.797Z,37.50
2018-06-20T11:14:57.043Z,39.00
2018-06-20T11:17:26.201Z,39.20
2018-06-20T11:19:54.447Z,39.10
2018-06-20T11:22:22.706Z,37.20
2018-06-20T11:24:50.951Z,37.40
2018-06-20T11:27:19.203Z,37.80
2018-06-20T11:29:47.453Z,39.40
2018-06-20T11:32:15.709Z,36.80
2018-06-20T11:34:43.950Z,39.10
2018-06-20T11:37:12.203Z,35.70
2018-06-20T11:39:40.451Z,36.80
2018-06-20T11:42:09.472Z,35.30
2018-06-20T11:44:37.715Z,35.30
2018-06-20T11:47:23.657Z,38.10
2018-06-20T11:49:51.964Z,35.10
2018-06-20T11:52:20.159Z,36.00
2018-06-20T11:54:49.843Z,38.80
2018-06-20T11:57:18.061Z,38.80
2018-06-20T11:59:52.052Z,38.30
2018-06-20T12:02:41.002Z,35.70
2018-06-20T12:05:24.126Z,35.70
2018-06-20T12:07:59.005Z,37.90
2018-06-20T12:10:43.055Z,37.20
2018-06-20T12:13:26.191Z,35.80
2018-06-20T12:16:09.326Z,36.30
2018-06-20T12:18:43.415Z,34.80
2018-06-20T12:21:17.451Z,31.90
2018-06-20T12:23:51.529Z,32.00
2018-06-20T12:26:25.474Z,33.40
2018-06-20T12:28:59.507Z,33.50
2018-06-20T12:31:34.283Z,33.40
2018-06-20T12:34:08.219Z,33.20
2018-06-20T12:36:42.192Z,33.60
2018-06-20T12:39:10.676Z,33.30
2018-06-20T12:41:38.926Z,33.20
2018-06-20T12:44:23.882Z,33.60
2018-06-20T12:46:52.920Z,32.10
2018-06-20T12:49:21.136Z,32.00
2018-06-20T12:51:49.515Z,32.30
2018-06-20T12:54:17.739Z,33.80
2018-06-20T12:56:45.983Z,32.50
2018-06-20T12:59:14.335Z,31.40
2018-06-20T13:01:42.564Z,31.20
2018-06-20T13:04:10.799Z,31.00
2018-06-20T13:06:39.821Z,30.50
2018-06-20T13:09:08.052Z,30.50
2018-06-20T13:11:37.075Z,33.50
2018-06-20T13:14:05.618Z,33.50
2018-06-20T13:16:33.874Z,30.40
2018-06-20T13:19:02.116Z,30.70
2018-06-20T13:21:30.410Z,34.00
2018-06-20T13:23:59.370Z,30.00
2018-06-20T13:26:27.614Z,30.00
2018-06-20T13:28:56.634Z,32.40
2018-06-20T13:31:24.879Z,31.70
2018-06-20T13:34:11.201Z,30.90
2018-06-20T13:36:55.124Z,32.00
2018-06-20T13:39:41.989Z,32.70
2018-06-20T13:42:10.131Z,31.70
2018-06-20T13:44:38.386Z,31.30
2018-06-20T13:47:24.996Z,30.80
2018-06-20T13:49:54.024Z,29.50
2018-06-20T13:52:22.281Z,29.40
2018-06-20T13:54:50.547Z,30.10
2018-06-20T13:57:19.550Z,29.70
2018-06-20T13:59:47.816Z,29.70
2018-06-20T14:02:16.068Z,29.80
2018-06-20T14:04:44.335Z,31.50
2018-06-20T14:07:12.581Z,30.70
2018-06-20T14:09:40.819Z,31.70
2018-06-20T14:12:09.079Z,31.10
2018-06-20T14:14:38.086Z,29.90
2018-06-20T14:17:06.342Z,29.70
2018-06-20T14:19:35.350Z,34.30
2018-06-20T14:22:03.606Z,34.20
2018-06-20T14:24:32.614Z,31.00
2018-06-20T14:27:00.899Z,30.90
2018-06-20T14:29:29.146Z,30.30
2018-06-20T14:32:17.939Z,31.70
2018-06-20T14:35:03.894Z,31.50
2018-06-20T14:37:38.503Z,31.30
2018-06-20T14:40:12.478Z,31.30
2018-06-20T14:42:40.737Z,29.90
2018-06-20T14:45:08.982Z,30.60
2018-06-20T14:47:38.007Z,32.90
2018-06-20T14:50:06.243Z,32.90
2018-06-20T14:52:35.265Z,31.00
2018-06-20T14:55:03.511Z,31.00
2018-06-20T14:57:32.546Z,31.80
2018-06-20T15:00:00.811Z,31.80
2018-06-20T15:02:29.086Z,30.60
2018-06-20T15:04:57.332Z,31.00
2018-06-20T15:07:25.973Z,33.70
2018-06-20T15:09:54.237Z,31.40
2018-06-20T15:12:22.479Z,33.50
2018-06-20T15:14:51.026Z,33.40
2018-06-20T15:17:19.236Z,34.20
2018-06-20T15:19:47.506Z,33.90
2018-06-20T15:22:16.526Z,32.00
2018-06-20T15:24:44.772Z,32.00
2018-06-20T15:27:28.711Z,32.60
2018-06-20T15:33:09.429Z,33.10
2018-06-20T15:35:55.531Z,33.00
2018-06-20T15:38:23.765Z,33.40
2018-06-20T15:40:52.845Z,32.10
2018-06-20T15:43:21.062Z,31.90
2018-06-20T15:45:49.313Z,31.70
2018-06-20T15:48:18.327Z,30.80
2018-06-20T15:50:46.595Z,30.70
2018-06-20T15:53:14.834Z,30.30
2018-06-20T15:55:43.084Z,31.80
2018-06-20T15:58:11.342Z,30.90
2018-06-20T16:00:39.573Z,33.20
2018-06-20T16:03:08.611Z,33.20
2018-06-20T16:05:36.874Z,33.00
2018-06-20T16:08:05.123Z,30.00
2018-06-20T16:10:33.367Z,32.50
2018-06-20T16:13:01.646Z,32.10
2018-06-20T16:15:29.891Z,33.70
2018-06-20T16:17:58.166Z,30.40
2018-06-20T16:20:44.269Z,32.20
2018-06-20T16:23:28.238Z,30.00
2018-06-20T16:26:02.031Z,31.10
2018-06-20T16:28:47.083Z,30.60
2018-06-20T16:31:15.326Z,29.40
2018-06-20T16:33:43.597Z,29.90
2018-06-20T16:36:11.846Z,32.80
2018-06-20T16:38:40.868Z,29.50
2018-06-20T16:41:09.113Z,29.50
2018-06-20T16:43:38.968Z,29.00
2018-06-20T16:46:07.293Z,29.10
2018-06-20T16:48:36.315Z,30.20
2018-06-20T16:51:04.559Z,30.10
2018-06-20T16:53:33.582Z,29.80
2018-06-20T16:56:01.873Z,29.80
2018-06-20T16:58:30.866Z,30.00
2018-06-20T17:00:59.103Z,29.90
2018-06-20T17:03:28.176Z,29.40
2018-06-20T17:05:56.384Z,29.40
2018-06-20T17:08:24.633Z,29.40
2018-06-20T17:10:53.646Z,29.30
2018-06-20T17:13:27.443Z,29.40
2018-06-20T17:16:14.113Z,30.00
2018-06-20T17:18:57.257Z,30.80
2018-06-20T17:21:40.383Z,30.40
2018-06-20T17:24:23.520Z,30.20
2018-06-20T17:26:52.523Z,29.60
2018-06-20T17:29:20.775Z,29.50
2018-06-20T17:31:49.023Z,28.00
2018-06-20T17:34:17.270Z,28.60
2018-06-20T17:36:45.519Z,28.90
2018-06-20T17:39:14.547Z,26.40
2018-06-20T17:41:42.785Z,26.30
2018-06-20T17:44:11.791Z,27.20
2018-06-20T17:46:40.050Z,27.30
2018-06-20T17:49:08.314Z,26.00
2018-06-20T17:51:36.540Z,26.90
2018-06-20T17:54:04.789Z,27.10
2018-06-20T17:56:33.047Z,28.00
2018-06-20T17:59:02.063Z,27.20
2018-06-20T18:01:30.322Z,27.10
2018-06-20T18:03:58.571Z,29.20
2018-06-20T18:06:44.695Z,28.30
2018-06-20T18:09:27.826Z,29.20
2018-06-20T18:11:56.197Z,27.20
2018-06-20T18:14:24.451Z,29.50
2018-06-20T18:16:56.073Z,28.20
2018-06-20T18:19:24.343Z,28.20
2018-06-20T18:21:52.632Z,30.00
2018-06-20T18:24:20.848Z,28.60
2018-06-20T18:26:49.096Z,31.00
2018-06-20T18:29:17.344Z,29.70
2018-06-20T18:31:45.587Z,30.90
2018-06-20T18:34:14.004Z,30.10
2018-06-20T18:36:42.243Z,32.10
2018-06-20T18:39:10.491Z,32.80
2018-06-20T18:41:39.509Z,34.20
2018-06-20T18:44:07.754Z,34.00
2018-06-20T18:46:36.787Z,36.30
2018-06-20T18:49:05.025Z,36.30
2018-06-20T18:51:34.058Z,39.40
2018-06-20T18:54:02.310Z,39.40
2018-06-20T18:56:30.578Z,38.50
2018-06-20T18:59:14.485Z,39.10
2018-06-20T19:02:00.886Z,39.90
2018-06-20T19:04:44.016Z,40.40
2018-06-20T19:07:30.933Z,42.60
2018-06-20T19:09:59.940Z,43.40
2018-06-20T19:12:28.199Z,43.40
2018-06-20T19:14:57.236Z,44.10
2018-06-20T19:17:25.457Z,44.00
2018-06-20T19:19:53.715Z,44.90
2018-06-20T19:22:21.977Z,44.40
2018-06-20T19:24:50.231Z,45.10
2018-06-20T19:27:18.471Z,45.10
2018-06-20T19:29:47.488Z,45.10
2018-06-20T19:32:15.771Z,44.90
2018-06-20T19:34:44.972Z,45.70
2018-06-20T19:37:13.218Z,45.60
2018-06-20T19:39:41.476Z,46.40
2018-06-20T19:42:10.551Z,47.20
2018-06-20T19:44:38.839Z,47.10
2018-06-20T19:47:07.026Z,47.70
2018-06-20T19:49:36.038Z,49.00
2018-06-20T19:52:05.301Z,48.90
2018-06-20T19:54:33.546Z,47.30
2018-06-20T19:57:01.798Z,47.10
2018-06-20T19:59:30.100Z,47.50
2018-06-20T20:01:58.358Z,48.40
2018-06-20T20:04:26.606Z,48.50
2018-06-20T20:06:55.604Z,49.10
2018-06-20T20:09:23.892Z,48.90
2018-06-20T20:11:52.131Z,49.20
2018-06-20T20:14:21.145Z,48.50
2018-06-20T20:16:49.393Z,48.30
2018-06-20T20:19:18.564Z,49.40
2018-06-20T20:21:46.802Z,49.30
2018-06-20T20:24:15.057Z,49.90
2018-06-20T20:26:44.092Z,50.70
2018-06-20T20:29:12.343Z,50.70
2018-06-20T20:31:40.739Z,51.10
2018-06-20T20:34:09.070Z,51.00
2018-06-20T20:36:37.226Z,51.60
2018-06-20T20:39:05.483Z,51.30
2018-06-20T20:41:33.867Z,50.90
2018-06-20T20:44:01.987Z,50.90
2018-06-20T20:46:30.231Z,50.70
2018-06-20T20:48:58.482Z,50.90
2018-06-20T20:51:26.742Z,51.10
2018-06-20T20:53:54.979Z,51.50
2018-06-20T20:56:23.338Z,51.30
2018-06-20T20:58:51.591Z,51.80
2018-06-20T21:01:19.840Z,51.30
2018-06-20T21:03:48.080Z,51.70
2018-06-20T21:06:16.393Z,51.70
2018-06-20T21:08:45.361Z,51.80
2018-06-20T21:11:13.616Z,51.80
2018-06-20T21:13:41.866Z,51.30
2018-06-20T21:16:10.119Z,51.50
2018-06-20T21:18:38.369Z,51.50
2018-06-20T21:21:06.631Z,52.20
2018-06-20T21:23:34.902Z,52.40
2018-06-20T21:26:03.154Z,52.80
2018-06-20T21:28:32.168Z,52.50
2018-06-20T21:31:00.445Z,52.50
2018-06-20T21:33:28.702Z,52.70
2018-06-20T21:35:57.712Z,53.10
2018-06-20T21:38:25.954Z,53.00
2018-06-20T21:40:54.981Z,53.10
2018-06-20T21:43:23.232Z,53.10
2018-06-20T21:45:52.457Z,53.80
2018-06-20T21:48:20.713Z,53.80
2018-06-20T21:50:48.958Z,54.30
2018-06-20T21:53:17.225Z,54.50
2018-06-20T21:55:45.470Z,54.20
2018-06-20T21:58:13.723Z,54.10
2018-06-20T22:00:41.962Z,54.10
2018-06-20T22:03:10.233Z,53.80
2018-06-20T22:05:38.472Z,53.90
2018-06-20T22:08:06.831Z,54.30
2018-06-20T22:10:35.068Z,54.10
2018-06-20T22:13:03.330Z,54.20
2018-06-20T22:15:31.575Z,54.60
2018-06-20T22:17:59.810Z,54.80
2018-06-20T22:20:28.087Z,55.10
2018-06-20T22:22:57.095Z,55.40
2018-06-20T22:25:25.351Z,55.30
2018-06-20T22:27:54.374Z,55.20
2018-06-20T22:30:22.622Z,55.10
2018-06-20T22:32:50.887Z,55.20
2018-06-20T22:35:19.909Z,55.70
2018-06-20T22:37:48.147Z,55.70
2018-06-20T22:40:17.302Z,56.00
2018-06-20T22:42:45.547Z,56.00
2018-06-20T22:45:13.796Z,56.10
2018-06-20T22:47:42.815Z,56.00
2018-06-20T22:50:11.058Z,55.80
2018-06-20T22:52:40.084Z,56.20
2018-06-20T22:55:08.359Z,56.20
2018-06-20T22:57:36.615Z,56.70
2018-06-20T23:00:05.621Z,56.90
2018-06-20T23:02:33.881Z,56.80
2018-06-20T23:05:02.898Z,57.30
2018-06-20T23:07:31.177Z,57.20
2018-06-20T23:09:59.431Z,57.20
2018-06-20T23:12:27.679Z,57.20
2018-06-20T23:14:55.939Z,57.40
2018-06-20T23:17:24.187Z,57.50
2018-06-20T23:19:52.559Z,57.70
2018-06-20T23:22:20.806Z,57.60
2018-06-20T23:24:49.808Z,57.40
2018-06-20T23:27:18.061Z,57.40
2018-06-20T23:29:47.245Z,57.80
2018-06-20T23:32:15.478Z,57.80
2018-06-20T23:34:43.727Z,57.60
2018-06-20T23:37:11.982Z,57.80
2018-06-20T23:39:40.999Z,57.80
2018-06-20T23:42:09.246Z,57.80
2018-06-20T23:44:38.286Z,57.70
2018-06-20T23:47:06.551Z,57.60
2018-06-20T23:49:34.797Z,57.40
2018-06-20T23:52:03.813Z,57.70
2018-06-20T23:54:32.069Z,57.70
2018-06-20T23:57:00.340Z,57.70
2018-06-20T23:59:29.347Z,57.60
